AKDT,Max TemperatureF,Mean TemperatureF,Min TemperatureF,Max Dew PointF,MeanDew PointF,Min DewpointF,Max Humidity, Mean Humidity, Min Humidity, Max Sea Level PressureIn, Mean Sea Level PressureIn, Min Sea Level PressureIn, Max VisibilityMiles, Mean VisibilityMiles, Min VisibilityMiles, Max Wind SpeedMPH, Mean Wind SpeedMPH, Max Gust SpeedMPH,PrecipitationIn, CloudCover, Events, WindDirDegrees
2013-7-1,57,52,48,47,44,41,90,72,57,29.84,29.66,29.56,10,10,9,13,5,84,0.21,8,Rain,87
2013-7-2,57,52,48,46,44,42,87,73,59,29.91,29.73,29.60,10,10,10,9,4,,0.00,8,,260
2013-7-3,62,55,51,44,43,41,77,65,53,30.04,30.00,29.92,10,10,10,12,4,21,0.01,7,Rain,220
2013-7-4,57,52,50,46,44,41,86,70,62,30.08,30.04,29.99,10,10,9,9,6,20,0.06,8,Rain,242
2013-7-5,57,52,50,48,47,43,86,79,69,30.09,30.06,30.02,10,10,6,6,2,,0.13,8,Rain,222
2013-7-6,59,52,48,47,46,44,90,74,60,30.03,29.92,29.73,10,10,10,8,3,18,0.05,8,Rain,189
2013-7-7,54,50,48,48,46,43,93,84,77,29.71,29.66,29.62,10,8,2,10,3,,0.40,8,Rain,245
2013-7-8,57,50,44,47,44,41,93,80,67,29.88,29.80,29.71,10,8,0,12,3,,0.00,6,Fog,262
2013-7-9,59,50,44,47,44,40,86,72,60,30.09,30.00,29.88,10,10,10,15,5,18,0.00,2,,257
2013-7-10,64,54,45,48,46,41,89,71,50,30.09,30.04,29.97,10,10,5,14,4,,0.00,0,,235
2013-7-11,75,60,46,54,47,43,86,67,41,29.97,29.95,29.93,10,10,10,14,4,,0.00,2,,217
2013-7-12,68,57,48,49,46,44,90,63,45,29.99,29.98,29.96,10,10,10,16,5,,0.00,1,,231
2013-7-13,72,60,50,49,47,45,86,63,42,30.20,30.08,30.00,10,10,10,13,4,,0.00,1,,251
2013-7-14,66,58,51,49,48,46,83,67,52,30.34,30.30,30.22,10,10,3,13,5,,0.00,0,,260
2013-7-15,66,55,46,50,48,43,86,74,54,30.37,30.33,30.27,10,10,10,16,3,,0.00,3,,243
2013-7-16,64,59,54,52,50,49,86,73,61,30.27,30.24,30.20,10,10,10,13,3,,0.00,4,,244
2013-7-17,66,58,51,54,52,48,89,77,63,30.20,30.16,30.14,10,10,10,15,4,18,0.00,5,,265
2013-7-18,68,60,55,55,54,52,87,74,63,30.23,30.19,30.17,10,10,10,16,6,22,0.00,4,,264
2013-7-19,62,58,53,53,49,48,83,72,63,30.28,30.25,30.22,10,10,10,18,10,26,0.00,2,,255
2013-7-20,64,56,48,50,48,45,89,75,60,30.22,30.17,30.11,10,10,10,16,6,17,0.00,2,,229
2013-7-21,75,60,46,51,46,42,90,63,30,30.10,30.04,29.99,10,10,7,15,4,22,0.00,1,,336
2013-7-22,73,62,52,50,47,43,80,60,39,30.13,30.09,30.04,10,10,10,13,3,,0.00,0,,219
2013-7-23,73,62,53,53,49,44,86,68,43,30.12,30.10,30.08,10,10,10,12,5,,0.00,2,,115
2013-7-24,72,62,52,53,51,47,86,66,47,30.07,30.02,29.99,10,10,10,14,6,,0.00,0,,137
2013-7-25,73,64,55,55,53,50,83,66,53,30.06,30.03,29.99,10,10,6,13,5,18,0.00,2,,299
2013-7-26,63,60,57,55,53,52,88,81,72,30.33,30.24,30.06,10,8,1,7,2,,0.00,7,,212
2013-7-27,64,58,53,54,52,51,94,82,64,30.39,30.36,30.33,10,6,0,17,5,,0.00,6,Fog,220
2013-7-28,63,58,53,54,52,50,88,80,65,30.34,30.28,30.22,10,8,0,14,5,,0.00,4,Fog,210
2013-7-29,66,58,51,53,50,46,88,76,63,30.22,30.20,30.19,10,8,1,16,5,,0.00,1,Fog,263
2013-7-30,66,58,51,52,50,46,88,75,58,30.25,30.22,30.21,10,8,1,17,4,22,0.00,0,,265
2013-7-31,70,40,10,52,49,10,86,66,23,30.22,30.20,30.15,10,10,0,14,5,22,0.00,0,,261